createdAt,value
2023-02-17T00:00:42.962Z,1017.74
2023-02-17T00:01:42.983Z,1017.70
2023-02-17T00:02:42.993Z,1017.75
2023-02-17T00:03:42.984Z,1017.74
2023-02-17T00:04:42.909Z,1017.71
2023-02-17T00:05:42.899Z,1017.74
2023-02-17T00:06:42.913Z,1017.67
2023-02-17T00:07:42.889Z,1017.76
2023-02-17T00:08:42.860Z,1017.69
2023-02-17T00:09:42.830Z,1017.73
2023-02-17T00:10:42.830Z,1017.64
2023-02-17T00:11:42.828Z,1017.70
2023-02-17T00:12:42.810Z,1017.66
2023-02-17T00:13:42.788Z,1017.69
2023-02-17T00:14:42.772Z,1017.70
2023-02-17T00:15:42.783Z,1017.71
2023-02-17T00:16:42.761Z,1017.68
2023-02-17T00:17:42.749Z,1017.63
2023-02-17T00:18:42.724Z,1017.60
2023-02-17T00:19:42.705Z,1017.61
2023-02-17T00:20:42.693Z,1017.62
2023-02-17T00:21:42.689Z,1017.61
2023-02-17T00:22:42.673Z,1017.62
2023-02-17T00:23:42.652Z,1017.64
2023-02-17T00:24:42.648Z,1017.60
2023-02-17T00:25:42.643Z,1017.63
2023-02-17T00:26:42.633Z,1017.66
2023-02-17T00:27:42.637Z,1017.63
2023-02-17T00:28:42.594Z,1017.66
2023-02-17T00:29:42.595Z,1017.61
2023-02-17T00:30:42.564Z,1017.61
2023-02-17T00:31:42.644Z,1017.63
2023-02-17T00:32:42.546Z,1017.70
2023-02-17T00:33:42.516Z,1017.68
2023-02-17T00:34:42.528Z,1017.63
2023-02-17T00:35:42.508Z,1017.62
2023-02-17T00:36:42.518Z,1017.65
2023-02-17T00:37:42.489Z,1017.61
2023-02-17T00:38:42.460Z,1017.66
2023-02-17T00:39:42.443Z,1017.63
2023-02-17T00:40:42.436Z,1017.62
2023-02-17T00:41:42.417Z,1017.60
2023-02-17T00:42:42.421Z,1017.63
2023-02-17T00:43:42.389Z,1017.59
2023-02-17T00:44:42.378Z,1017.58
2023-02-17T00:45:42.363Z,1017.61
2023-02-17T00:46:42.383Z,1017.60
2023-02-17T00:47:42.363Z,1017.67
2023-02-17T00:48:42.367Z,1017.68
2023-02-17T00:49:42.316Z,1017.62
2023-02-17T00:50:42.313Z,1017.61
2023-02-17T00:51:42.287Z,1017.60
2023-02-17T00:52:42.282Z,1017.57
2023-02-17T00:53:42.253Z,1017.61
2023-02-17T00:54:42.240Z,1017.59
2023-02-17T00:55:42.223Z,1017.54
2023-02-17T00:56:42.250Z,1017.54
2023-02-17T00:57:42.263Z,1017.52
2023-02-17T00:58:42.227Z,1017.55
2023-02-17T00:59:42.179Z,1017.55
2023-02-17T01:00:42.183Z,1017.52
2023-02-17T01:01:42.238Z,1017.52
2023-02-17T01:02:42.192Z,1017.51
2023-02-17T01:03:42.291Z,1017.51
2023-02-17T01:04:42.140Z,1017.46
2023-02-17T01:05:42.096Z,1017.45
2023-02-17T01:06:42.099Z,1017.47
2023-02-17T01:07:42.097Z,1017.50
2023-02-17T01:08:42.068Z,1017.47
2023-02-17T01:09:42.036Z,1017.44
2023-02-17T01:10:42.030Z,1017.45
2023-02-17T01:11:42.016Z,1017.44
2023-02-17T01:12:42.016Z,1017.41
2023-02-17T01:13:41.987Z,1017.39
2023-02-17T01:14:41.979Z,1017.38
2023-02-17T01:15:42.023Z,1017.37
2023-02-17T01:16:41.960Z,1017.31
2023-02-17T01:17:41.976Z,1017.31
2023-02-17T01:18:41.931Z,1017.30
2023-02-17T01:19:41.910Z,1017.33
2023-02-17T01:20:41.920Z,1017.28
2023-02-17T01:21:41.898Z,1017.24
2023-02-17T01:22:41.906Z,1017.30
2023-02-17T01:23:41.863Z,1017.26
2023-02-17T01:24:41.856Z,1017.28
2023-02-17T01:25:41.840Z,1017.27
2023-02-17T01:26:41.838Z,1017.16
2023-02-17T01:27:41.821Z,1017.22
2023-02-17T01:28:41.807Z,1017.23
2023-02-17T01:29:41.793Z,1017.23
2023-02-17T01:30:41.833Z,1017.21
2023-02-17T01:31:41.891Z,1017.15
2023-02-17T01:32:41.763Z,1017.26
2023-02-17T01:33:41.740Z,1017.18
2023-02-17T01:34:41.724Z,1017.22
2023-02-17T01:35:41.711Z,1017.17
2023-02-17T01:36:41.690Z,1017.16
2023-02-17T01:37:41.693Z,1017.12
2023-02-17T01:38:41.675Z,1017.14
2023-02-17T01:39:41.668Z,1017.09
2023-02-17T01:40:41.637Z,1017.09
2023-02-17T01:41:41.620Z,1017.06
2023-02-17T01:42:41.619Z,1017.07
2023-02-17T01:43:41.591Z,1017.07
2023-02-17T01:44:41.582Z,1017.10
2023-02-17T01:45:41.574Z,1017.02
2023-02-17T01:46:41.594Z,1017.01
2023-02-17T01:47:41.565Z,1017.08
2023-02-17T01:48:41.526Z,1017.01
2023-02-17T01:49:41.515Z,1016.99
2023-02-17T01:50:41.497Z,1017.03
2023-02-17T01:51:41.492Z,1016.99
2023-02-17T01:52:41.480Z,1016.96
2023-02-17T01:53:41.476Z,1016.97
2023-02-17T01:54:41.440Z,1016.95
2023-02-17T01:55:41.429Z,1016.92
2023-02-17T01:56:41.423Z,1016.94
2023-02-17T01:57:41.421Z,1016.94
2023-02-17T01:58:41.392Z,1016.90
2023-02-17T01:59:41.383Z,1016.89
2023-02-17T02:00:41.354Z,1016.88
2023-02-17T02:01:41.455Z,1016.87
2023-02-17T02:02:41.428Z,1016.85
2023-02-17T02:03:41.324Z,1016.91
2023-02-17T02:04:41.308Z,1016.91
2023-02-17T02:05:41.302Z,1016.84
2023-02-17T02:06:41.269Z,1016.85
2023-02-17T02:07:41.296Z,1016.80
2023-02-17T02:09:51.814Z,1016.78
2023-02-17T02:10:53.722Z,1016.79
2023-02-17T02:11:51.041Z,1016.80
2023-02-17T02:12:51.051Z,1016.74
2023-02-17T02:13:51.016Z,1016.82
2023-02-17T02:14:51.004Z,1016.79
2023-02-17T02:15:50.996Z,1016.82
2023-02-17T02:16:50.998Z,1016.80
2023-02-17T02:17:50.979Z,1016.82
2023-02-17T02:18:50.964Z,1016.81
2023-02-17T02:19:50.934Z,1016.80
2023-02-17T02:20:50.928Z,1016.80
2023-02-17T02:21:50.918Z,1016.80
2023-02-17T02:22:50.948Z,1016.84
2023-02-17T02:23:50.879Z,1016.83
2023-02-17T02:24:50.870Z,1016.78
2023-02-17T02:25:50.874Z,1016.79
2023-02-17T02:26:50.865Z,1016.75
2023-02-17T02:27:50.860Z,1016.75
2023-02-17T02:28:50.830Z,1016.72
2023-02-17T02:29:50.822Z,1016.71
2023-02-17T02:30:50.819Z,1016.76
2023-02-17T02:31:50.832Z,1016.67
2023-02-17T02:32:50.787Z,1016.76
2023-02-17T02:33:50.770Z,1016.71
2023-02-17T02:34:50.743Z,1016.70
2023-02-17T02:35:50.729Z,1016.77
2023-02-17T02:36:50.866Z,1016.77
2023-02-17T02:37:50.732Z,1016.68
2023-02-17T02:38:50.688Z,1016.71
2023-02-17T02:39:50.672Z,1016.69
2023-02-17T02:40:50.682Z,1016.69
2023-02-17T02:41:50.644Z,1016.65
2023-02-17T02:42:50.625Z,1016.65
2023-02-17T02:43:50.631Z,1016.70
2023-02-17T02:44:50.604Z,1016.64
2023-02-17T02:45:50.683Z,1016.60
2023-02-17T02:46:50.584Z,1016.62
2023-02-17T02:47:50.567Z,1016.64
2023-02-17T02:48:50.556Z,1016.61
2023-02-17T02:49:50.532Z,1016.57
2023-02-17T02:50:50.514Z,1016.58
2023-02-17T02:51:50.504Z,1016.60
2023-02-17T02:52:50.525Z,1016.59
2023-02-17T02:53:50.488Z,1016.51
2023-02-17T02:54:50.472Z,1016.58
2023-02-17T02:55:50.453Z,1016.53
2023-02-17T02:56:50.434Z,1016.49
2023-02-17T02:57:50.423Z,1016.44
2023-02-17T02:58:50.475Z,1016.40
2023-02-17T02:59:50.397Z,1016.44
2023-02-17T03:00:51.133Z,1016.43
2023-02-17T03:01:50.401Z,1016.45
2023-02-17T03:02:50.352Z,1016.46
2023-02-17T03:03:50.431Z,1016.41
2023-02-17T03:04:50.318Z,1016.39
2023-02-17T03:05:50.325Z,1016.36
2023-02-17T03:06:50.304Z,1016.34
2023-02-17T03:07:50.295Z,1016.33
2023-02-17T03:08:50.299Z,1016.32
2023-02-17T03:09:50.277Z,1016.36
2023-02-17T03:10:50.290Z,1016.35
2023-02-17T03:11:50.229Z,1016.30
2023-02-17T03:12:50.214Z,1016.28
2023-02-17T03:13:50.218Z,1016.31
2023-02-17T03:14:50.192Z,1016.33
2023-02-17T03:15:50.176Z,1016.30
2023-02-17T03:16:50.195Z,1016.16
2023-02-17T03:17:50.160Z,1016.26
2023-02-17T03:18:50.369Z,1016.26
2023-02-17T03:19:50.131Z,1016.23
2023-02-17T03:20:50.109Z,1016.26
2023-02-17T03:21:50.105Z,1016.27
2023-02-17T03:22:50.087Z,1016.28
2023-02-17T03:23:50.065Z,1016.33
2023-02-17T03:24:50.074Z,1016.31
2023-02-17T03:25:50.053Z,1016.25
2023-02-17T03:26:50.033Z,1016.30
2023-02-17T03:27:50.014Z,1016.31
2023-02-17T03:28:50.001Z,1016.26
2023-02-17T03:29:50.002Z,1016.29
2023-02-17T03:30:49.960Z,1016.23
2023-02-17T03:31:50.079Z,1016.23
2023-02-17T03:32:49.939Z,1016.26
2023-02-17T03:33:49.944Z,1016.23
2023-02-17T03:34:49.960Z,1016.23
2023-02-17T03:35:49.920Z,1016.25
2023-02-17T03:36:49.902Z,1016.25
2023-02-17T03:37:49.881Z,1016.21
2023-02-17T03:38:49.866Z,1016.24
2023-02-17T03:39:49.891Z,1016.23
2023-02-17T03:40:49.821Z,1016.23
2023-02-17T03:41:49.828Z,1016.17
2023-02-17T03:42:49.801Z,1016.19
2023-02-17T03:43:49.780Z,1016.18
2023-02-17T03:44:49.805Z,1016.24
2023-02-17T03:45:49.798Z,1016.19
2023-02-17T03:46:49.760Z,1016.22
2023-02-17T03:47:49.770Z,1016.26
2023-02-17T03:48:49.726Z,1016.20
2023-02-17T03:49:49.739Z,1016.24
2023-02-17T03:50:49.711Z,1016.27
2023-02-17T03:51:49.695Z,1016.23
2023-02-17T03:52:49.668Z,1016.27
2023-02-17T03:53:49.678Z,1016.30
2023-02-17T03:54:49.669Z,1016.28
2023-02-17T03:55:49.644Z,1016.28
2023-02-17T03:56:49.621Z,1016.30
2023-02-17T03:57:49.597Z,1016.32
2023-02-17T03:58:49.581Z,1016.31
2023-02-17T03:59:49.588Z,1016.28
2023-02-17T04:00:49.567Z,1016.25
2023-02-17T04:01:49.540Z,1016.31
2023-02-17T04:02:49.519Z,1016.31
2023-02-17T04:03:49.538Z,1016.32
2023-02-17T04:04:49.514Z,1016.34
2023-02-17T04:05:49.492Z,1016.31
2023-02-17T04:06:49.470Z,1016.36
2023-02-17T04:07:49.459Z,1016.33
2023-02-17T04:08:49.433Z,1016.31
2023-02-17T04:09:49.472Z,1016.34
2023-02-17T04:10:49.422Z,1016.35
2023-02-17T04:11:49.410Z,1016.28
2023-02-17T04:12:49.385Z,1016.29
2023-02-17T04:13:49.386Z,1016.34
2023-02-17T04:14:49.367Z,1016.34
2023-02-17T04:15:49.361Z,1016.34
2023-02-17T04:16:49.337Z,1016.39
2023-02-17T04:17:49.355Z,1016.39
2023-02-17T04:18:49.300Z,1016.40
2023-02-17T04:19:49.321Z,1016.38
2023-02-17T04:20:49.301Z,1016.35
2023-02-17T04:21:49.272Z,1016.45
2023-02-17T04:22:49.251Z,1016.38
2023-02-17T04:23:49.254Z,1016.48
2023-02-17T04:24:49.215Z,1016.45
2023-02-17T04:25:49.238Z,1016.45
2023-02-17T04:26:49.202Z,1016.40
2023-02-17T04:27:49.222Z,1016.38
2023-02-17T04:28:49.175Z,1016.39
2023-02-17T04:29:49.152Z,1016.39
2023-02-17T04:30:49.289Z,1016.33
2023-02-17T04:31:49.277Z,1016.35
2023-02-17T04:32:49.112Z,1016.35
2023-02-17T04:33:49.104Z,1016.37
2023-02-17T04:34:49.095Z,1016.38
2023-02-17T04:35:49.085Z,1016.39
2023-02-17T04:36:49.053Z,1016.38
2023-02-17T04:37:49.060Z,1016.43
2023-02-17T04:38:49.038Z,1016.42
2023-02-17T04:39:49.021Z,1016.40
2023-02-17T04:40:49.043Z,1016.29
2023-02-17T04:41:48.984Z,1016.30
2023-02-17T04:42:48.981Z,1016.30
2023-02-17T04:43:48.973Z,1016.27
2023-02-17T04:44:48.958Z,1016.28
2023-02-17T04:45:49.019Z,1016.34
2023-02-17T04:46:48.924Z,1016.34
2023-02-17T04:47:48.907Z,1016.37
2023-02-17T04:48:48.915Z,1016.35
2023-02-17T04:49:48.888Z,1016.30
2023-02-17T04:50:48.909Z,1016.30
2023-02-17T04:51:48.863Z,1016.28
2023-02-17T04:52:48.834Z,1016.31
2023-02-17T04:53:48.834Z,1016.32
2023-02-17T04:54:48.814Z,1016.33
2023-02-17T04:55:48.828Z,1016.29
2023-02-17T04:56:48.790Z,1016.33
2023-02-17T04:57:48.781Z,1016.33
2023-02-17T04:58:48.755Z,1016.28
2023-02-17T04:59:48.749Z,1016.32
2023-02-17T05:00:48.767Z,1016.32
2023-02-17T05:01:48.723Z,1016.37
2023-02-17T05:02:48.704Z,1016.35
2023-02-17T05:03:48.710Z,1016.39
2023-02-17T05:04:48.735Z,1016.44
2023-02-17T05:05:48.679Z,1016.48
2023-02-17T05:06:48.655Z,1016.46
2023-02-17T05:07:48.638Z,1016.49
2023-02-17T05:08:48.615Z,1016.50
2023-02-17T05:09:48.623Z,1016.45
2023-02-17T05:10:48.629Z,1016.46
2023-02-17T05:11:48.596Z,1016.46
2023-02-17T05:12:48.568Z,1016.44
2023-02-17T05:13:48.558Z,1016.47
2023-02-17T05:14:48.538Z,1016.41
2023-02-17T05:15:48.531Z,1016.37
2023-02-17T05:16:48.527Z,1016.35
2023-02-17T05:17:48.513Z,1016.33
2023-02-17T05:18:48.489Z,1016.33
2023-02-17T05:19:48.486Z,1016.28
2023-02-17T05:20:48.458Z,1016.32
2023-02-17T05:21:48.457Z,1016.26
2023-02-17T05:22:48.427Z,1016.20
2023-02-17T05:23:48.415Z,1016.19
2023-02-17T05:24:48.398Z,1016.10
2023-02-17T05:25:48.416Z,1016.19
2023-02-17T05:26:48.387Z,1016.21
2023-02-17T05:27:48.380Z,1016.15
2023-02-17T05:28:48.346Z,1016.09
2023-02-17T05:29:48.328Z,1016.07
2023-02-17T05:30:48.344Z,1016.14
2023-02-17T05:31:48.421Z,1016.18
2023-02-17T05:32:48.293Z,1016.24
2023-02-17T05:33:48.269Z,1016.26
2023-02-17T05:34:48.259Z,1016.17
2023-02-17T05:35:48.268Z,1016.12
2023-02-17T05:36:48.261Z,1016.15
2023-02-17T05:37:48.226Z,1016.10
2023-02-17T05:38:48.213Z,1016.07
2023-02-17T05:39:48.217Z,1016.08
2023-02-17T05:40:48.183Z,1016.06
2023-02-17T05:41:48.204Z,1016.15
2023-02-17T05:42:48.161Z,1016.16
2023-02-17T05:43:48.171Z,1016.04
2023-02-17T05:44:48.143Z,1016.03
2023-02-17T05:45:48.147Z,1016.05
2023-02-17T05:46:48.225Z,1016.06
2023-02-17T05:47:48.091Z,1016.11
2023-02-17T05:48:48.086Z,1016.02
2023-02-17T05:49:48.061Z,1015.97
2023-02-17T05:50:48.046Z,1015.97
2023-02-17T05:51:48.127Z,1016.00
2023-02-17T05:52:48.014Z,1015.99
2023-02-17T05:53:48.004Z,1016.01
2023-02-17T05:54:48.013Z,1016.00
2023-02-17T05:55:48.852Z,1016.07
2023-02-17T05:56:47.998Z,1016.05
2023-02-17T05:57:47.954Z,1016.09
2023-02-17T05:58:47.936Z,1016.10
2023-02-17T05:59:47.940Z,1016.16
2023-02-17T06:00:47.991Z,1016.16
2023-02-17T06:01:47.939Z,1016.24
2023-02-17T06:02:47.901Z,1016.33
2023-02-17T06:03:47.882Z,1016.30
2023-02-17T06:04:47.936Z,1016.30
2023-02-17T06:05:47.844Z,1016.27
2023-02-17T06:06:47.898Z,1016.28
2023-02-17T06:07:47.820Z,1016.26
2023-02-17T06:08:47.790Z,1016.23
2023-02-17T06:09:47.794Z,1016.17
2023-02-17T06:10:47.809Z,1016.18
2023-02-17T06:11:47.762Z,1016.10
2023-02-17T06:12:47.781Z,1016.05
2023-02-17T06:13:47.738Z,1016.08
2023-02-17T06:14:47.708Z,1015.96
2023-02-17T06:15:47.780Z,1015.95
2023-02-17T06:16:47.700Z,1015.93
2023-02-17T06:17:47.694Z,1015.96
2023-02-17T06:18:47.674Z,1015.98
2023-02-17T06:19:47.667Z,1015.96
2023-02-17T06:20:47.631Z,1015.97
2023-02-17T06:21:47.634Z,1015.98
2023-02-17T06:22:47.649Z,1015.93
2023-02-17T06:23:47.619Z,1016.06
2023-02-17T06:24:47.612Z,1016.02
2023-02-17T06:25:47.573Z,1016.04
2023-02-17T06:26:47.547Z,1015.99
2023-02-17T06:27:47.588Z,1016.06
2023-02-17T06:28:47.524Z,1016.01
2023-02-17T06:29:47.525Z,1015.89
2023-02-17T06:30:47.519Z,1015.82
2023-02-17T06:31:47.628Z,1015.82
2023-02-17T06:32:47.491Z,1015.87
2023-02-17T06:33:47.457Z,1015.96
2023-02-17T06:34:47.436Z,1015.99
2023-02-17T06:35:47.429Z,1015.95
2023-02-17T06:36:47.445Z,1016.00
2023-02-17T06:37:47.418Z,1016.05
2023-02-17T06:38:47.383Z,1016.07
2023-02-17T06:39:47.380Z,1016.08
2023-02-17T06:40:47.352Z,1016.12
2023-02-17T06:41:47.392Z,1016.15
2023-02-17T06:42:47.350Z,1016.10
2023-02-17T06:43:47.322Z,1016.08
2023-02-17T06:44:47.301Z,1016.07
2023-02-17T06:45:47.352Z,1016.11
2023-02-17T06:46:47.276Z,1016.14
2023-02-17T06:47:47.279Z,1016.11
2023-02-17T06:48:47.240Z,1016.07
2023-02-17T06:49:47.229Z,1016.09
2023-02-17T06:50:47.212Z,1016.14
2023-02-17T06:51:47.240Z,1016.07
2023-02-17T06:52:47.214Z,1016.12
2023-02-17T06:53:47.181Z,1016.10
2023-02-17T06:54:47.185Z,1016.05
2023-02-17T06:55:47.144Z,1016.01
2023-02-17T06:56:47.159Z,1016.00
2023-02-17T06:57:47.131Z,1015.98
2023-02-17T06:58:47.111Z,1016.00
2023-02-17T06:59:47.137Z,1016.00
2023-02-17T07:00:47.091Z,1016.03
2023-02-17T07:01:47.119Z,1016.09
2023-02-17T07:02:47.180Z,1016.23
2023-02-17T07:03:47.063Z,1016.18
2023-02-17T07:04:47.026Z,1016.23
2023-02-17T07:05:47.005Z,1016.16
2023-02-17T07:06:47.005Z,1015.91
2023-02-17T07:07:47.000Z,1015.93
2023-02-17T07:08:47.010Z,1015.96
2023-02-17T07:09:46.967Z,1015.98
2023-02-17T07:10:46.966Z,1015.99
2023-02-17T07:11:46.926Z,1016.01
2023-02-17T07:12:46.940Z,1015.97
2023-02-17T07:13:46.899Z,1016.01
2023-02-17T07:14:46.899Z,1016.03
2023-02-17T07:15:46.899Z,1015.96
2023-02-17T07:16:46.899Z,1015.98
2023-02-17T07:17:46.856Z,1016.08
2023-02-17T07:18:46.838Z,1016.07
2023-02-17T07:19:46.820Z,1016.04
2023-02-17T07:20:46.830Z,1016.01
2023-02-17T07:21:46.800Z,1015.92
2023-02-17T07:22:46.899Z,1015.94
2023-02-17T07:23:46.770Z,1016.04
2023-02-17T07:24:46.762Z,1016.05
2023-02-17T07:25:46.741Z,1016.04
2023-02-17T07:26:46.792Z,1016.01
2023-02-17T07:27:46.710Z,1016.12
2023-02-17T07:28:46.727Z,1016.14
2023-02-17T07:29:46.709Z,1016.05
2023-02-17T07:30:46.713Z,1016.05
2023-02-17T07:31:46.741Z,1016.10
2023-02-17T07:32:46.654Z,1016.06
2023-02-17T07:33:46.653Z,1016.09
2023-02-17T07:34:46.621Z,1016.10
2023-02-17T07:35:46.599Z,1016.15
2023-02-17T07:36:46.591Z,1016.11
2023-02-17T07:37:46.592Z,1016.06
2023-02-17T07:38:46.588Z,1016.11
2023-02-17T07:39:46.540Z,1016.10
2023-02-17T07:40:46.552Z,1016.13
2023-02-17T07:41:46.604Z,1016.12
2023-02-17T07:42:46.513Z,1016.08
2023-02-17T07:43:46.524Z,1016.16
2023-02-17T07:44:46.478Z,1016.08
2023-02-17T07:45:46.493Z,1016.09
2023-02-17T07:46:46.449Z,1016.08
2023-02-17T07:47:46.420Z,1016.07
2023-02-17T07:48:46.445Z,1016.12
2023-02-17T07:49:46.413Z,1016.08
2023-02-17T07:50:46.390Z,1016.06
2023-02-17T07:51:46.385Z,1016.11
2023-02-17T07:52:46.382Z,1016.14
2023-02-17T07:53:46.391Z,1016.13
2023-02-17T07:54:46.343Z,1016.15
2023-02-17T07:55:46.321Z,1016.26
2023-02-17T07:56:46.344Z,1016.13
2023-02-17T07:57:46.309Z,1016.16
2023-02-17T07:58:46.332Z,1016.14
2023-02-17T07:59:46.274Z,1016.18
2023-02-17T08:00:46.253Z,1016.19
2023-02-17T08:01:46.327Z,1016.14
2023-02-17T08:02:46.230Z,1016.17
2023-02-17T08:03:46.229Z,1016.20
2023-02-17T08:04:46.210Z,1016.12
2023-02-17T08:05:48.163Z,1016.14
2023-02-17T08:06:46.171Z,1016.14
2023-02-17T08:07:46.158Z,1016.10
2023-02-17T08:08:46.220Z,1016.06
2023-02-17T08:09:53.148Z,1016.13
2023-02-17T08:10:46.113Z,1016.04
2023-02-17T08:11:48.209Z,1016.07
2023-02-17T08:12:46.089Z,1016.11
2023-02-17T08:13:46.092Z,1016.12
2023-02-17T08:14:46.051Z,1016.10
2023-02-17T08:15:46.049Z,1016.09
2023-02-17T08:16:46.200Z,1016.05
2023-02-17T08:17:46.011Z,1016.17
2023-02-17T08:18:46.010Z,1016.12
2023-02-17T08:19:49.062Z,1016.09
2023-02-17T08:20:45.982Z,1016.16
2023-02-17T08:21:45.953Z,1016.09
2023-02-17T08:22:45.960Z,1016.08
2023-02-17T08:23:45.950Z,1016.16
2023-02-17T08:24:45.931Z,1016.06
2023-02-17T08:25:45.904Z,1016.17
2023-02-17T08:26:45.925Z,1016.11
2023-02-17T08:27:45.884Z,1016.12
2023-02-17T08:28:45.894Z,1016.16
2023-02-17T08:29:45.844Z,1016.04
2023-02-17T08:30:45.940Z,1016.05
2023-02-17T08:31:45.902Z,1016.10
2023-02-17T08:32:45.823Z,1016.03
2023-02-17T08:33:45.792Z,1016.04
2023-02-17T08:34:45.799Z,1016.08
2023-02-17T08:35:45.783Z,1016.11
2023-02-17T08:36:45.761Z,1016.05
2023-02-17T08:37:45.748Z,1016.05
2023-02-17T08:38:45.733Z,1016.08
2023-02-17T08:39:45.775Z,1016.08
2023-02-17T08:40:45.731Z,1016.12
2023-02-17T08:41:45.678Z,1016.10
2023-02-17T08:42:45.720Z,1016.08
2023-02-17T08:43:45.683Z,1016.06
2023-02-17T08:44:45.665Z,1016.10
2023-02-17T08:45:45.636Z,1016.07
2023-02-17T08:46:45.700Z,1016.12
2023-02-17T08:47:45.626Z,1016.16
2023-02-17T08:48:45.592Z,1016.06
2023-02-17T08:49:45.595Z,1016.03
2023-02-17T08:50:45.563Z,1016.00
2023-02-17T08:51:45.624Z,1016.00
2023-02-17T08:52:45.540Z,1015.91
2023-02-17T08:53:45.517Z,1015.94
2023-02-17T08:54:45.526Z,1015.97
2023-02-17T08:55:49.480Z,1016.01
2023-02-17T08:56:45.484Z,1016.01
2023-02-17T08:57:45.472Z,1015.96
2023-02-17T08:58:45.463Z,1016.02
2023-02-17T08:59:45.460Z,1016.11
2023-02-17T09:00:45.438Z,1016.00
2023-02-17T09:01:45.433Z,1016.03
2023-02-17T09:02:45.401Z,1016.03
2023-02-17T09:03:45.438Z,1016.09
2023-02-17T09:04:45.446Z,1016.08
2023-02-17T09:05:45.384Z,1016.04
2023-02-17T09:06:45.346Z,1016.11
2023-02-17T09:07:45.326Z,1016.11
2023-02-17T09:08:45.337Z,1016.03
2023-02-17T09:09:45.307Z,1016.06
2023-02-17T09:10:45.368Z,1016.02
2023-02-17T09:11:45.311Z,1016.01
2023-02-17T09:12:45.331Z,1016.08
2023-02-17T09:13:45.291Z,1016.11
2023-02-17T09:14:45.256Z,1015.95
2023-02-17T09:15:45.266Z,1015.96
2023-02-17T09:16:45.250Z,1015.94
2023-02-17T09:17:45.194Z,1016.01
2023-02-17T09:18:45.190Z,1016.04
2023-02-17T09:19:45.193Z,1016.06
2023-02-17T09:20:45.195Z,1016.09
2023-02-17T09:21:45.156Z,1016.16
2023-02-17T09:22:45.131Z,1016.13
2023-02-17T09:23:45.116Z,1016.10
2023-02-17T09:24:45.195Z,1016.08
2023-02-17T09:25:45.081Z,1016.11
2023-02-17T09:26:45.074Z,1016.14
2023-02-17T09:27:45.073Z,1016.13
2023-02-17T09:28:45.078Z,1016.17
2023-02-17T09:29:45.136Z,1016.22
2023-02-17T09:30:45.107Z,1016.22
2023-02-17T09:31:45.134Z,1016.13
2023-02-17T09:32:44.996Z,1016.20
2023-02-17T09:33:44.982Z,1016.17
2023-02-17T09:34:45.035Z,1016.32
2023-02-17T09:35:44.976Z,1016.20
2023-02-17T09:36:44.948Z,1016.25
2023-02-17T09:37:45.027Z,1016.28
2023-02-17T09:38:44.941Z,1016.28
2023-02-17T09:39:44.916Z,1016.22
2023-02-17T09:40:44.904Z,1016.29
2023-02-17T09:41:44.872Z,1016.25
2023-02-17T09:42:44.858Z,1016.24
2023-02-17T09:43:44.883Z,1016.23
2023-02-17T09:44:44.864Z,1016.27
2023-02-17T09:45:44.829Z,1016.18
2023-02-17T09:46:56.042Z,1016.29
2023-02-17T09:47:45.851Z,1016.27
2023-02-17T09:48:44.779Z,1016.30
2023-02-17T09:49:44.766Z,1016.31
2023-02-17T09:50:44.797Z,1016.28
2023-02-17T09:51:44.731Z,1016.23
2023-02-17T09:52:44.740Z,1016.15
2023-02-17T09:53:44.797Z,1016.23
2023-02-17T09:54:44.699Z,1016.23
2023-02-17T09:55:44.744Z,1016.13
2023-02-17T09:56:44.677Z,1016.20
2023-02-17T09:57:44.669Z,1016.32
2023-02-17T09:58:44.652Z,1016.21
2023-02-17T09:59:44.638Z,1016.24
2023-02-17T10:00:44.700Z,1016.32
2023-02-17T10:01:44.609Z,1016.37
2023-02-17T10:02:44.617Z,1016.40
2023-02-17T10:03:44.706Z,1016.42
2023-02-17T10:04:44.604Z,1016.30
2023-02-17T10:05:44.626Z,1016.41
2023-02-17T10:06:44.553Z,1016.48
2023-02-17T10:07:44.570Z,1016.41
2023-02-17T10:08:44.527Z,1016.44
2023-02-17T10:09:44.588Z,1016.42
2023-02-17T10:10:44.486Z,1016.44
2023-02-17T10:11:44.511Z,1016.48
2023-02-17T10:12:44.512Z,1016.39
2023-02-17T10:13:44.428Z,1016.53
2023-02-17T10:14:44.509Z,1016.36
2023-02-17T10:15:44.501Z,1016.47
2023-02-17T10:16:44.485Z,1016.45
2023-02-17T10:17:44.420Z,1016.40
2023-02-17T10:18:44.397Z,1016.45
2023-02-17T10:19:44.435Z,1016.42
2023-02-17T10:20:44.442Z,1016.44
2023-02-17T10:21:44.318Z,1016.35
2023-02-17T10:22:44.448Z,1016.41
2023-02-17T10:23:44.292Z,1016.46
2023-02-17T10:24:44.311Z,1016.36
2023-02-17T10:25:44.287Z,1016.39
2023-02-17T10:26:45.298Z,1016.55
2023-02-17T10:27:44.291Z,1016.49
2023-02-17T10:28:44.258Z,1016.42
2023-02-17T10:29:44.233Z,1016.40
2023-02-17T10:30:44.299Z,1016.31
2023-02-17T10:31:44.294Z,1016.37
2023-02-17T10:32:44.336Z,1016.34
2023-02-17T10:33:44.160Z,1016.39
2023-02-17T10:34:44.173Z,1016.42
2023-02-17T10:35:44.216Z,1016.38
2023-02-17T10:36:44.123Z,1016.37
2023-02-17T10:37:44.102Z,1016.46
2023-02-17T10:38:44.092Z,1016.43
2023-02-17T10:39:44.075Z,1016.57
2023-02-17T10:40:44.071Z,1016.53
2023-02-17T10:41:44.041Z,1016.51
2023-02-17T10:42:44.036Z,1016.49
2023-02-17T10:43:44.021Z,1016.56
2023-02-17T10:44:44.015Z,1016.45
2023-02-17T10:45:44.016Z,1016.38
2023-02-17T10:46:44.132Z,1016.52
2023-02-17T10:47:43.962Z,1016.48
2023-02-17T10:48:43.955Z,1016.44
2023-02-17T10:49:43.940Z,1016.56
2023-02-17T10:50:43.927Z,1016.42
2023-02-17T10:51:43.921Z,1016.42
2023-02-17T10:52:43.903Z,1016.41
2023-02-17T10:53:43.876Z,1016.40
2023-02-17T10:54:43.877Z,1016.35
2023-02-17T10:55:43.855Z,1016.29
2023-02-17T10:56:43.903Z,1016.38
2023-02-17T10:57:43.824Z,1016.37
2023-02-17T10:58:43.827Z,1016.33
2023-02-17T10:59:43.825Z,1016.35
2023-02-17T11:00:43.861Z,1016.24
2023-02-17T11:01:43.807Z,1016.32
2023-02-17T11:02:43.764Z,1016.30
2023-02-17T11:03:43.815Z,1016.29
2023-02-17T11:04:43.769Z,1016.31
2023-02-17T11:05:43.745Z,1016.37
2023-02-17T11:06:43.724Z,1016.31
2023-02-17T11:07:43.717Z,1016.35
2023-02-17T11:08:43.679Z,1016.32
2023-02-17T11:09:43.670Z,1016.30
2023-02-17T11:10:43.700Z,1016.28
2023-02-17T11:11:43.680Z,1016.28
2023-02-17T11:12:43.631Z,1016.19
2023-02-17T11:13:43.626Z,1016.29
2023-02-17T11:14:43.615Z,1016.26
2023-02-17T11:15:43.590Z,1016.24
2023-02-17T11:16:43.619Z,1016.24
2023-02-17T11:17:43.573Z,1016.15
2023-02-17T11:18:43.552Z,1016.17
2023-02-17T11:19:43.542Z,1016.14
2023-02-17T11:20:43.533Z,1016.21
2023-02-17T11:21:43.531Z,1016.14
2023-02-17T11:22:43.483Z,1016.14
2023-02-17T11:23:43.483Z,1016.16
2023-02-17T11:24:43.463Z,1016.14
2023-02-17T11:25:43.461Z,1016.01
2023-02-17T11:26:43.458Z,1015.87
2023-02-17T11:27:43.423Z,1016.04
2023-02-17T11:28:43.411Z,1015.86
2023-02-17T11:29:43.403Z,1015.90
2023-02-17T11:30:43.387Z,1015.84
2023-02-17T11:31:43.505Z,1015.84
2023-02-17T11:32:43.362Z,1015.83
2023-02-17T11:33:43.344Z,1015.84
2023-02-17T11:34:43.333Z,1015.74
2023-02-17T11:35:43.317Z,1015.75
2023-02-17T11:36:43.317Z,1015.87
2023-02-17T11:37:43.301Z,1015.77
2023-02-17T11:38:43.279Z,1015.87
2023-02-17T11:39:43.278Z,1015.82
2023-02-17T11:40:43.248Z,1015.82
2023-02-17T11:41:43.260Z,1015.77
2023-02-17T11:42:43.234Z,1015.86
2023-02-17T11:43:43.218Z,1015.94
2023-02-17T11:44:43.208Z,1015.91
2023-02-17T11:45:43.212Z,1015.82
2023-02-17T11:46:43.181Z,1015.76
2023-02-17T11:47:43.162Z,1015.83
2023-02-17T11:48:43.146Z,1015.80
2023-02-17T11:49:43.136Z,1015.78
2023-02-17T11:50:43.130Z,1015.92
2023-02-17T11:51:43.153Z,1015.98
2023-02-17T11:52:43.088Z,1016.03
2023-02-17T11:53:43.086Z,1015.97
2023-02-17T11:54:43.065Z,1015.96
2023-02-17T11:55:43.054Z,1015.97
2023-02-17T11:56:43.032Z,1015.96
2023-02-17T11:57:45.384Z,1016.09
2023-02-17T11:58:43.004Z,1016.00
2023-02-17T11:59:43.003Z,1016.12
2023-02-17T12:00:42.975Z,1016.01
2023-02-17T12:01:42.970Z,1016.02
2023-02-17T12:02:42.961Z,1015.87
2023-02-17T12:03:42.952Z,1016.01
2023-02-17T12:04:42.954Z,1016.02
2023-02-17T12:05:42.916Z,1015.94
2023-02-17T12:06:42.891Z,1015.79